CheckWX is a tool to help pilots better visualize weather data.  It is not intended as a substitute for an official pre-flight weather briefing.

20:10:53 UTC

KRSV METAR
Crawford Co Airport
Robinson, Illinois, USA
Current

16 mins ago

KRSV 231955Z AUTO 31009KT 10SM SCT030 20/13 A3002 RMK AO2 T02000133
Observed
Apr-23 @ 19:55 UTC
Wind
  • 310° at 9 KTS
Visibility
10 SM
Flight Rules
VFR
Cloud Levels
  • Scattered at 3,000' AGL
Temperature
20°C / 68°F
Dewpoint
13°C / 55°F
Humidity
64%
Altimeter
30.02" Hg
Pressure
1016.62 hPa
Previous

36 mins ago

KRSV 231935Z AUTO 30008KT 10SM BKN030 20/13 A3002 RMK AO2 T02000131
Observed
Apr-23 @ 19:35 UTC
Wind
  • 300° at 8 KTS
Visibility
10 SM
Flight Rules
MVFR
Cloud Levels
  • Broken at 3,000' AGL
Temperature
20°C / 68°F
Dewpoint
13°C / 55°F
Humidity
64%
Altimeter
30.02" Hg
Pressure
1016.62 hPa
Previous

56 mins ago

KRSV 231915Z AUTO 31005KT 10SM BKN028 19/13 A3003 RMK AO2 LTG DSNT NE T01930126
Observed
Apr-23 @ 19:15 UTC
Wind
  • 310° at 5 KTS
Visibility
10 SM
Flight Rules
MVFR
Cloud Levels
  • Broken at 2,800' AGL
Temperature
19°C / 66°F
Dewpoint
13°C / 55°F
Humidity
68%
Altimeter
30.03" Hg
Pressure
1016.92 hPa